Hovedside
METAR-TAF:

METAR-TAF

Lufthavner :

Oljeplattform

Norne Fpso, Norge

breddegrad: 66-01-48N, lengdegrad: 008-04-48E, høyde over havet: 10 m

Gjeldene værobservasjon

Denne rapporten ble laget for 47 minutter siden, klokken 14:50 UTC
Vind 24 kt fra Sørvest
Temperatur 6°C
Luftfuktighet 75%
Trykk 1003 hPa
Sikt 10 km eller mer
Brutte skyer i en høyde av 2500 ft

METAR: ENNE 141450Z 22024KT 9999 BKN025 06/02 Q1003 RESHRA W///S4

Tid: 16:37 (15:37 UTC)

Varsel

Denne rapporten ble laget for 4 timer og 37 minutter siden, klokken 11:00 UTC
Varsel gyldig fra 14. klokken 12 UTC til 14. klokken 18 UTC
Vind 25 kt fra Sør
Sikt 10 km eller mer
Få skyer i en høyde av 1800 ft, Bygeskyer.
Spredte skyer i en høyde av 3000 ft
lette regnbyger
Midlertidig
fra 14. klokken 15 UTC til 14. klokken 18 UTC
Brutte skyer i en høyde av 1400 ft, Bygeskyer.
regnbyger

TAF: ENNE 141100Z 1412/1418 18025KT 9999 -SHRA FEW018CB SCT030 TEMPO 1415/1418 SHRA BKN014CB

Værobservasjoner og værvarsel for over 4000 flyplasser (METAR- og TAF-rapporter).

Tilgjengelige stasjoner er representert av de røde og gule prikkene på kartet.

Hold musepekeren over prikken for å se navnet på stasjonen.

Klikk så for å se værobservasjoner og -varsler.

For å forandre kartet kan du klikke på den grønne knappen med svart kryss for å zoome inn, på den grønne knappen med strek for å zoome ut, eller på de grønne pilene for å se tilstøtende kart.


METAR-TAF: